Time;durP1;ratioP1;P1;durP2;ratioP2;P2;SDS_P1;SDS_P2;PMS_P1;PMS_P2;Temp;Humidity;BMP_temperature;BMP_pressure;BME280_temperature;BME280_humidity;BME280_pressure;Samples;Min_cycle;Max_cycle;Signal;HPM_P1;HPM_P2
2023/04/17 00:00:09;;;;;;;0.85;0.85;;;10.50;99.90;;;;;;5055756;28;20549;-70
2023/04/17 00:02:39;;;;;;;0.60;0.60;;;10.40;99.90;;;;;;5055532;28;20115;-70
2023/04/17 00:05:09;;;;;;;0.75;0.75;;;10.30;99.90;;;;;;5037756;28;20355;-70
2023/04/17 00:07:37;;;;;;;0.88;0.82;;;10.50;99.90;;;;;;5035685;28;20102;-70
2023/04/17 00:10:08;;;;;;;0.38;0.38;;;10.40;99.90;;;;;;5055447;28;20108;-70
2023/04/17 00:12:35;;;;;;;0.22;0.22;;;10.50;99.90;;;;;;5055120;28;20494;-69
2023/04/17 00:15:01;;;;;;;1.15;0.85;;;10.40;99.90;;;;;;5055534;28;20029;-70
2023/04/17 00:17:27;;;;;;;0.13;0.13;;;10.40;99.90;;;;;;5055467;28;20078;-70
2023/04/17 00:19:52;;;;;;;0.10;0.10;;;10.50;99.90;;;;;;5055300;28;20486;-70
2023/04/17 00:22:18;;;;;;;0.10;0.10;;;10.50;99.90;;;;;;5055256;28;20045;-70
2023/04/17 00:24:44;;;;;;;4.47;2.85;;;10.50;99.90;;;;;;5055228;28;20033;-70
2023/04/17 00:27:10;;;;;;;1.05;0.93;;;10.50;99.90;;;;;;5033643;28;20051;-70
2023/04/17 00:29:36;;;;;;;2.55;0.85;;;10.60;99.90;;;;;;5044925;28;20032;-70
2023/04/17 00:32:02;;;;;;;0.00;0.00;;;10.60;99.90;;;;;;5054826;28;20133;-70
2023/04/17 00:34:28;;;;;;;0.10;0.10;;;10.60;99.90;;;;;;5055179;28;20029;-70
2023/04/17 00:36:54;;;;;;;1.30;0.57;;;10.80;99.90;;;;;;5034524;28;20087;-70
2023/04/17 00:39:20;;;;;;;2.38;1.77;;;10.50;99.90;;;;;;5054812;28;20409;-70
2023/04/17 00:41:46;;;;;;;4.63;3.45;;;10.40;99.90;;;;;;5066948;28;20405;-70
2023/04/17 00:44:11;;;;;;;0.10;0.10;;;10.50;99.90;;;;;;5074568;28;20023;-70
2023/04/17 00:46:37;;;;;;;0.03;0.03;;;10.40;99.90;;;;;;5056947;28;20033;-70
2023/04/17 00:49:03;;;;;;;4.53;1.70;;;10.50;99.90;;;;;;5074510;28;20028;-70
2023/04/17 00:51:30;;;;;;;8.35;2.15;;;10.40;99.90;;;;;;5057210;28;20033;-70
2023/04/17 00:53:57;;;;;;;1.13;1.05;;;10.40;99.90;;;;;;5074788;28;20067;-70
2023/04/17 00:56:24;;;;;;;0.10;0.10;;;10.50;99.90;;;;;;5074487;28;20056;-70
2023/04/17 00:58:50;;;;;;;0.10;0.10;;;10.40;99.90;;;;;;5074529;28;20488;-70
2023/04/17 01:01:16;;;;;;;0.10;0.10;;;10.60;99.90;;;;;;5056891;28;20036;-70
2023/04/17 01:03:43;;;;;;;0.38;0.38;;;10.60;99.90;;;;;;5074416;28;20043;-70
2023/04/17 01:06:09;;;;;;;0.65;0.65;;;10.50;99.90;;;;;;5074507;28;20104;-70
2023/04/17 01:08:43;;;;;;;0.30;0.30;;;10.60;99.90;;;;;;5056353;28;20476;-69
2023/04/17 01:11:10;;;;;;;0.35;0.30;;;10.60;99.90;;;;;;5056216;28;20029;-70
2023/04/17 01:13:46;;;;;;;1.38;0.95;;;10.70;99.90;;;;;;5074347;28;20461;-69
2023/04/17 01:16:12;;;;;;;0.50;0.50;;;10.70;99.90;;;;;;5042101;28;20024;-70
2023/04/17 01:18:38;;;;;;;0.52;0.52;;;10.70;99.90;;;;;;5074407;28;20020;-70
2023/04/17 01:21:04;;;;;;;0.10;0.10;;;10.70;99.90;;;;;;5056098;28;20094;-70
2023/04/17 01:23:43;;;;;;;0.75;0.75;;;10.50;99.90;;;;;;5074335;28;20024;-70
2023/04/17 01:26:15;;;;;;;0.10;0.10;;;10.60;99.90;;;;;;5073747;28;20062;-70
2023/04/17 01:28:41;;;;;;;2.33;1.75;;;10.60;99.90;;;;;;5055949;28;20465;-70
2023/04/17 01:31:07;;;;;;;2.20;0.95;;;10.60;99.90;;;;;;5055989;28;20086;-70
2023/04/17 01:33:32;;;;;;;0.13;0.13;;;10.50;99.90;;;;;;5074365;28;20404;-70
2023/04/17 01:35:58;;;;;;;3.08;2.83;;;10.50;99.90;;;;;;5074051;28;20033;-70
2023/04/17 01:38:24;;;;;;;9.82;2.58;;;10.50;99.90;;;;;;5073384;28;20496;-70
2023/04/17 01:40:50;;;;;;;1.67;1.58;;;10.50;99.90;;;;;;5073618;28;20032;-69
2023/04/17 01:43:16;;;;;;;0.32;0.32;;;10.30;99.90;;;;;;5038962;28;20039;-70
2023/04/17 01:45:41;;;;;;;1.38;1.27;;;10.40;99.90;;;;;;5056039;28;20024;-70
2023/04/17 01:48:07;;;;;;;0.00;0.00;;;10.20;99.90;;;;;;5055726;28;20476;-70
2023/04/17 01:50:33;;;;;;;0.63;0.63;;;10.20;99.90;;;;;;5038699;28;20021;-70
2023/04/17 01:52:59;;;;;;;1.85;1.10;;;10.30;99.90;;;;;;5073742;28;20025;-70
2023/04/17 01:55:24;;;;;;;0.35;0.35;;;10.40;99.90;;;;;;5073202;28;20538;-70
2023/04/17 01:57:50;;;;;;;0.10;0.10;;;10.40;99.90;;;;;;5055608;28;20024;-70
2023/04/17 02:00:16;;;;;;;0.52;0.50;;;10.30;99.90;;;;;;5055423;28;20036;-70
2023/04/17 02:02:42;;;;;;;0.17;0.17;;;10.30;99.90;;;;;;5073387;28;20041;-70
2023/04/17 02:05:08;;;;;;;0.10;0.10;;;10.20;99.90;;;;;;5072980;28;20024;-70
2023/04/17 02:07:35;;;;;;;1.75;1.25;;;10.30;99.90;;;;;;5073617;28;20073;-70
2023/04/17 02:10:01;;;;;;;1.17;1.15;;;10.30;99.90;;;;;;5055169;28;20544;-70
2023/04/17 02:12:27;;;;;;;3.13;1.63;;;10.20;99.90;;;;;;5073218;28;20035;-70
2023/04/17 02:14:52;;;;;;;2.25;1.80;;;10.30;99.90;;;;;;5055194;28;20031;-70
2023/04/17 02:17:18;;;;;;;4.45;3.47;;;10.40;99.90;;;;;;5055028;28;20320;-70
2023/04/17 02:19:44;;;;;;;9.30;3.33;;;10.40;99.90;;;;;;5055242;28;20021;-70
2023/04/17 02:22:10;;;;;;;2.85;0.55;;;10.40;99.90;;;;;;5055179;28;20051;-70
2023/04/17 02:24:35;;;;;;;0.35;0.35;;;10.40;99.90;;;;;;5054935;28;20024;-69
2023/04/17 02:27:01;;;;;;;2.55;1.88;;;10.40;99.90;;;;;;5072887;28;20073;-69
2023/04/17 02:29:27;;;;;;;0.30;0.30;;;10.30;99.90;;;;;;5050453;28;20021;-69
2023/04/17 02:31:53;;;;;;;2.33;2.17;;;10.30;99.90;;;;;;5063528;28;20056;-70
2023/04/17 02:34:19;;;;;;;0.30;0.30;;;10.20;99.90;;;;;;5054683;28;20055;-70
2023/04/17 02:36:49;;;;;;;1.77;1.67;;;10.40;99.90;;;;;;5054943;28;20032;-70
2023/04/17 02:39:16;;;;;;;7.45;5.03;;;10.30;99.90;;;;;;5058571;28;20028;-70
2023/04/17 02:41:43;;;;;;;6.45;2.15;;;10.20;99.90;;;;;;5055090;28;20067;-70
2023/04/17 02:44:09;;;;;;;0.10;0.10;;;10.20;99.90;;;;;;5071786;28;20476;-70
2023/04/17 02:46:35;;;;;;;14.65;5.07;;;10.10;99.90;;;;;;5071429;28;20027;-70
2023/04/17 02:49:01;;;;;;;2.13;1.52;;;10.10;99.90;;;;;;5071598;28;20028;-70
2023/04/17 02:51:27;;;;;;;0.13;0.13;;;10.20;99.90;;;;;;5072579;28;20029;-70
2023/04/17 02:53:53;;;;;;;2.22;2.13;;;10.20;99.90;;;;;;5071389;28;20523;-70
2023/04/17 02:56:19;;;;;;;15.55;2.45;;;10.20;99.90;;;;;;5071334;28;20028;-70
2023/04/17 02:58:45;;;;;;;1.35;0.65;;;10.10;99.90;;;;;;5071397;28;20021;-70
2023/04/17 03:01:10;;;;;;;2.10;2.00;;;10.10;99.90;;;;;;5071301;28;20377;-70
2023/04/17 03:03:41;;;;;;;0.50;0.50;;;10.20;99.90;;;;;;5060473;28;20025;-70
2023/04/17 03:06:10;;;;;;;1.95;1.85;;;10.20;99.90;;;;;;5070423;28;20032;-70
2023/04/17 03:08:37;;;;;;;0.10;0.10;;;10.20;99.90;;;;;;5072324;28;20090;-70
2023/04/17 03:11:04;;;;;;;5.50;5.03;;;10.20;99.90;;;;;;5071260;28;20403;-70
2023/04/17 03:13:31;;;;;;;16.35;3.20;;;10.20;99.90;;;;;;5071400;28;20035;-70
2023/04/17 03:15:57;;;;;;;0.30;0.30;;;10.10;99.90;;;;;;5070839;28;20032;-70
2023/04/17 03:18:23;;;;;;;0.55;0.55;;;10.00;99.90;;;;;;5065141;28;20030;-70
2023/04/17 03:20:49;;;;;;;0.45;0.38;;;10.10;99.90;;;;;;5065324;28;20085;-70
2023/04/17 03:23:14;;;;;;;3.83;2.80;;;10.20;99.90;;;;;;5072434;28;20029;-70
2023/04/17 03:25:41;;;;;;;2.35;0.90;;;10.20;99.90;;;;;;5054099;28;20027;-70
2023/04/17 03:28:07;;;;;;;0.90;0.88;;;10.30;99.90;;;;;;5072356;28;20017;-70
2023/04/17 03:30:33;;;;;;;4.93;2.20;;;10.10;99.90;;;;;;5071045;28;20028;-70
2023/04/17 03:33:02;;;;;;;1.30;1.27;;;10.30;99.90;;;;;;5072342;28;20047;-70
2023/04/17 03:35:30;;;;;;;0.30;0.30;;;10.30;99.90;;;;;;5054083;28;20435;-70
2023/04/17 03:37:55;;;;;;;5.82;2.38;;;10.40;99.90;;;;;;5070877;28;20112;-70
2023/04/17 03:40:22;;;;;;;0.10;0.10;;;10.30;99.90;;;;;;5070872;28;20036;-70
2023/04/17 03:42:47;;;;;;;0.30;0.30;;;10.20;99.90;;;;;;5070716;28;20098;-70
2023/04/17 03:45:15;;;;;;;3.00;2.38;;;10.30;99.90;;;;;;5054175;28;20361;-70
2023/04/17 03:47:42;;;;;;;1.02;1.02;;;10.20;99.90;;;;;;5054222;28;20029;-70
2023/04/17 03:50:08;;;;;;;1.20;1.20;;;10.10;99.90;;;;;;5070302;28;20032;-70
2023/04/17 03:52:39;;;;;;;1.63;1.55;;;10.20;99.90;;;;;;5070907;28;20408;-70
2023/04/17 03:55:07;;;;;;;0.28;0.28;;;10.20;99.90;;;;;;5072031;28;20036;-70
2023/04/17 03:57:33;;;;;;;2.42;2.25;;;10.30;99.90;;;;;;5070765;28;20023;-70
2023/04/17 03:59:58;;;;;;;6.60;1.00;;;10.20;99.90;;;;;;5070875;28;20028;-70
2023/04/17 04:02:24;;;;;;;2.00;1.05;;;10.10;99.90;;;;;;5070216;28;20392;-70
2023/04/17 04:04:52;;;;;;;3.08;0.82;;;10.10;99.90;;;;;;5070186;28;20485;-70
2023/04/17 04:07:19;;;;;;;3.75;3.17;;;10.20;99.90;;;;;;5070390;28;20027;-70
2023/04/17 04:09:45;;;;;;;2.13;1.52;;;10.10;99.90;;;;;;5072113;28;20025;-70
2023/04/17 04:12:11;;;;;;;1.63;1.55;;;10.10;99.90;;;;;;5070362;28;20171;-70
2023/04/17 04:14:40;;;;;;;6.32;1.65;;;10.00;99.90;;;;;;5070343;28;20870;-70
2023/04/17 04:17:06;;;;;;;3.63;1.92;;;9.90;99.90;;;;;;5071652;28;20106;-70
2023/04/17 04:19:33;;;;;;;1.65;1.27;;;9.90;99.90;;;;;;5049561;28;20032;-70
2023/04/17 04:21:59;;;;;;;2.08;1.83;;;10.10;99.90;;;;;;5057182;28;20036;-70
2023/04/17 04:24:34;;;;;;;3.13;1.75;;;10.10;99.90;;;;;;5073759;28;20036;-71
2023/04/17 04:27:03;;;;;;;4.57;1.65;;;10.20;99.90;;;;;;5073865;28;20025;-70
2023/04/17 04:29:30;;;;;;;1.05;1.05;;;10.20;99.90;;;;;;5073816;28;20021;-70
2023/04/17 04:32:00;;;;;;;0.52;0.52;;;10.30;99.90;;;;;;5073831;28;20822;-70
2023/04/17 04:34:32;;;;;;;0.10;0.10;;;10.30;99.90;;;;;;5073288;28;20404;-69
2023/04/17 04:36:57;;;;;;;3.15;2.88;;;10.30;99.90;;;;;;5073694;28;20468;-70
2023/04/17 04:39:36;;;;;;;2.38;1.85;;;10.20;99.90;;;;;;5073460;28;20394;-70
2023/04/17 04:42:05;;;;;;;0.65;0.65;;;10.10;99.90;;;;;;5073510;28;20040;-70
2023/04/17 04:44:39;;;;;;;2.67;2.40;;;10.10;99.90;;;;;;5074643;28;20074;-70
2023/04/17 04:47:05;;;;;;;3.60;2.33;;;10.00;99.90;;;;;;5073616;28;20119;-70
2023/04/17 04:49:31;;;;;;;0.17;0.17;;;10.00;99.90;;;;;;5073281;28;20024;-69
2023/04/17 04:51:58;;;;;;;1.17;1.17;;;10.10;99.90;;;;;;5056995;28;20419;-70
2023/04/17 04:54:29;;;;;;;;;;;10.10;99.90;;;;;;5073735;28;20111;-70
2023/04/17 04:56:58;;;;;;;1.67;1.23;;;10.10;99.90;;;;;;5073507;28;19915;-70
2023/04/17 04:59:24;;;;;;;2.70;1.67;;;10.30;99.90;;;;;;5073377;28;20473;-70
2023/04/17 05:01:59;;;;;;;0.10;0.10;;;10.30;99.90;;;;;;5057651;28;20562;-70
2023/04/17 05:04:26;;;;;;;4.75;2.70;;;10.10;99.90;;;;;;5074233;28;20500;-70
2023/04/17 05:06:56;;;;;;;0.57;0.57;;;10.30;99.90;;;;;;5056985;28;20081;-70
2023/04/17 05:09:22;;;;;;;2.10;0.77;;;10.30;99.90;;;;;;5073825;28;20096;-70
2023/04/17 05:11:52;;;;;;;0.65;0.65;;;10.20;99.90;;;;;;5056454;28;20435;-70
2023/04/17 05:14:19;;;;;;;2.15;1.65;;;10.30;99.90;;;;;;5072536;28;20150;-70
2023/04/17 05:16:44;;;;;;;0.90;0.90;;;10.20;99.90;;;;;;5055927;28;20032;-70
2023/04/17 05:19:11;;;;;;;2.65;0.85;;;9.90;99.90;;;;;;5072794;28;20021;-69
2023/04/17 05:21:52;;;;;;;2.38;2.08;;;10.00;99.90;;;;;;5072929;28;20410;-70
2023/04/17 05:24:19;;;;;;;4.55;2.85;;;10.20;99.90;;;;;;5072540;28;20062;-69
2023/04/17 05:26:47;;;;;;;0.30;0.30;;;10.10;99.90;;;;;;5072919;28;20031;-70
2023/04/17 05:29:13;;;;;;;4.18;2.75;;;10.10;99.90;;;;;;5073626;28;20111;-69
2023/04/17 05:31:40;;;;;;;1.17;1.08;;;9.90;99.90;;;;;;5072633;28;20488;-70
2023/04/17 05:34:14;;;;;;;4.75;2.40;;;9.90;99.90;;;;;;5072452;28;20032;-70
2023/04/17 05:36:40;;;;;;;5.00;1.20;;;9.70;99.90;;;;;;5072474;28;20032;-69
2023/04/17 05:39:07;;;;;;;5.28;1.65;;;9.60;99.90;;;;;;5072332;28;20028;-70
2023/04/17 05:41:33;;;;;;;0.70;0.70;;;9.60;99.90;;;;;;5073624;28;20044;-69
2023/04/17 05:43:58;;;;;;;7.60;2.55;;;9.70;99.90;;;;;;5072414;28;20029;-69
2023/04/17 05:46:24;;;;;;;0.40;0.38;;;9.60;99.90;;;;;;5071976;28;20016;-69
2023/04/17 05:48:50;;;;;;;6.00;2.50;;;9.70;99.90;;;;;;5073547;28;20062;-69
2023/04/17 05:51:16;;;;;;;2.75;2.60;;;9.60;99.90;;;;;;5053223;28;20024;-70
2023/04/17 05:53:43;;;;;;;0.10;0.10;;;9.60;99.90;;;;;;5051954;28;20036;-69
2023/04/17 05:56:10;;;;;;;0.10;0.10;;;9.70;99.90;;;;;;5053979;28;20469;-70
2023/04/17 05:58:36;;;;;;;1.65;1.15;;;9.70;99.90;;;;;;5061054;28;20202;-70
2023/04/17 06:01:05;;;;;;;0.55;0.55;;;9.60;99.90;;;;;;5058329;28;20021;-70
2023/04/17 06:03:32;;;;;;;1.20;0.50;;;9.70;99.90;;;;;;5058496;28;20453;-70
2023/04/17 06:06:04;;;;;;;0.10;0.10;;;9.70;99.90;;;;;;5046495;28;20160;-70
2023/04/17 06:08:31;;;;;;;2.40;2.13;;;9.70;99.90;;;;;;5053918;28;20473;-70
2023/04/17 06:10:56;;;;;;;2.53;1.92;;;9.90;99.90;;;;;;5055766;28;20063;-71
2023/04/17 06:13:23;;;;;;;0.50;0.50;;;9.80;99.90;;;;;;5051167;28;20033;-70
2023/04/17 06:15:50;;;;;;;0.70;0.70;;;9.80;99.90;;;;;;5053770;28;20029;-70
2023/04/17 06:18:16;;;;;;;1.67;0.98;;;9.70;99.90;;;;;;5055150;28;20037;-70
2023/04/17 06:20:43;;;;;;;0.90;0.90;;;9.70;99.90;;;;;;5055815;28;20038;-71
2023/04/17 06:23:09;;;;;;;2.10;0.95;;;9.80;99.90;;;;;;5051064;28;20041;-71
2023/04/17 06:25:35;;;;;;;0.30;0.30;;;9.80;99.90;;;;;;5053329;28;20497;-71
2023/04/17 06:28:01;;;;;;;1.15;1.13;;;10.00;99.90;;;;;;5046634;28;20029;-71
2023/04/17 06:30:27;;;;;;;0.52;0.52;;;10.00;99.90;;;;;;5042870;28;20035;-70
2023/04/17 06:32:54;;;;;;;0.10;0.10;;;10.00;99.90;;;;;;5068088;28;20013;-70
2023/04/17 06:35:20;;;;;;;0.32;0.32;;;10.00;99.90;;;;;;5051977;28;20083;-71
2023/04/17 06:37:51;;;;;;;0.63;0.63;;;10.00;99.90;;;;;;5048969;28;20076;-70
2023/04/17 06:40:16;;;;;;;0.47;0.47;;;10.10;99.90;;;;;;5049121;28;20358;-72
2023/04/17 06:42:42;;;;;;;6.57;3.97;;;10.00;99.90;;;;;;5052465;28;20037;-70
2023/04/17 06:45:12;;;;;;;0.52;0.50;;;9.90;99.90;;;;;;5037127;28;20021;-72
2023/04/17 06:47:38;;;;;;;0.30;0.30;;;9.90;99.90;;;;;;5062098;28;20051;-73
2023/04/17 06:50:05;;;;;;;7.65;2.33;;;9.90;99.90;;;;;;5062984;28;20027;-73
2023/04/17 06:52:30;;;;;;;1.20;1.10;;;10.10;99.90;;;;;;5055030;28;20055;-69
2023/04/17 06:54:57;;;;;;;0.63;0.63;;;10.20;99.90;;;;;;5052351;28;20540;-72
2023/04/17 06:57:23;;;;;;;2.60;2.22;;;10.30;99.90;;;;;;5065193;28;20032;-70
2023/04/17 06:59:49;;;;;;;1.88;1.55;;;10.40;99.90;;;;;;5059949;28;20111;-70
2023/04/17 07:02:16;;;;;;;4.90;4.50;;;10.40;99.90;;;;;;5056581;28;20033;-70
2023/04/17 07:04:42;;;;;;;2.03;1.45;;;10.40;99.90;;;;;;5067853;28;20039;-70
2023/04/17 07:07:08;;;;;;;1.80;1.38;;;10.30;99.90;;;;;;5052586;28;20038;-70
2023/04/17 07:09:34;;;;;;;0.57;0.57;;;10.30;99.90;;;;;;5056495;28;20050;-70
2023/04/17 07:12:00;;;;;;;0.38;0.38;;;10.50;99.90;;;;;;5062076;28;20120;-72
2023/04/17 07:14:26;;;;;;;25.80;5.88;;;10.30;99.90;;;;;;5055204;28;20113;-72
2023/04/17 07:16:51;;;;;;;1.70;1.15;;;10.10;99.90;;;;;;5085387;28;20295;-72
2023/04/17 07:19:17;;;;;;;3.72;1.75;;;10.00;99.90;;;;;;5056615;28;20108;-70
2023/04/17 07:21:43;;;;;;;0.85;0.82;;;10.10;99.90;;;;;;5055785;28;20045;-71
2023/04/17 07:24:09;;;;;;;0.85;0.85;;;10.30;99.90;;;;;;5060150;28;20104;-71
2023/04/17 07:26:36;;;;;;;2.83;1.27;;;10.20;99.90;;;;;;5054521;28;20036;-72
2023/04/17 07:29:01;;;;;;;0.43;0.43;;;10.10;99.90;;;;;;5048259;28;20036;-70
2023/04/17 07:31:27;;;;;;;0.57;0.57;;;10.30;99.90;;;;;;5038011;28;20020;-69
2023/04/17 07:33:53;;;;;;;2.17;1.75;;;10.40;99.90;;;;;;5039818;28;20028;-72
2023/04/17 07:36:19;;;;;;;0.50;0.50;;;10.40;99.90;;;;;;5048408;28;20021;-69
2023/04/17 07:38:45;;;;;;;0.43;0.43;;;10.50;99.90;;;;;;5053643;28;20057;-69
2023/04/17 07:41:11;;;;;;;4.05;1.95;;;10.60;99.90;;;;;;5033813;28;20029;-70
2023/04/17 07:43:37;;;;;;;0.85;0.85;;;10.60;99.90;;;;;;5054281;28;20100;-70
2023/04/17 07:46:03;;;;;;;0.63;0.63;;;10.40;99.90;;;;;;5057749;28;20032;-69
2023/04/17 07:48:29;;;;;;;4.13;3.65;;;10.30;99.90;;;;;;5040622;28;20082;-69
2023/04/17 07:50:55;;;;;;;0.38;0.30;;;10.40;99.90;;;;;;5070799;28;20029;-69
2023/04/17 07:53:21;;;;;;;4.93;2.63;;;10.40;99.90;;;;;;5056662;28;20135;-71
2023/04/17 07:55:47;;;;;;;3.05;2.67;;;10.50;99.90;;;;;;5049815;28;20025;-71
2023/04/17 07:58:15;;;;;;;2.95;2.78;;;10.80;99.90;;;;;;5056935;28;20111;-71
2023/04/17 08:00:40;;;;;;;0.10;0.10;;;10.90;99.90;;;;;;5074102;28;20081;-71
2023/04/17 08:03:06;;;;;;;0.47;0.47;;;10.80;99.90;;;;;;5069573;28;20037;-71
2023/04/17 08:05:32;;;;;;;0.10;0.10;;;11.10;99.90;;;;;;5060543;28;20393;-71
2023/04/17 08:08:00;;;;;;;0.38;0.38;;;11.00;99.90;;;;;;5063282;28;20039;-71
2023/04/17 08:10:27;;;;;;;3.45;2.60;;;11.20;99.90;;;;;;5063175;28;20024;-70
2023/04/17 08:12:53;;;;;;;1.80;1.33;;;11.00;99.90;;;;;;5061117;28;20053;-70
2023/04/17 08:15:19;;;;;;;0.90;0.90;;;10.90;99.90;;;;;;5042287;28;20035;-70
2023/04/17 08:17:45;;;;;;;0.35;0.35;;;11.00;99.90;;;;;;5058069;28;20109;-70
2023/04/17 08:20:12;;;;;;;0.73;0.73;;;11.10;99.90;;;;;;5061735;28;20764;-70
2023/04/17 08:22:43;;;;;;;1.50;1.40;;;11.00;99.90;;;;;;5054580;28;20036;-70
2023/04/17 08:25:09;;;;;;;1.13;0.53;;;10.80;99.90;;;;;;5059703;28;20025;-70
2023/04/17 08:27:36;;;;;;;0.10;0.10;;;10.90;99.90;;;;;;5057959;28;20029;-70
2023/04/17 08:30:04;;;;;;;2.13;1.48;;;11.00;99.90;;;;;;5054902;28;20028;-70
2023/04/17 08:32:40;;;;;;;2.50;1.85;;;11.00;99.90;;;;;;5027149;28;20048;-70
2023/04/17 08:35:08;;;;;;;1.23;1.23;;;10.80;99.90;;;;;;5060697;28;20058;-70
2023/04/17 08:37:35;;;;;;;0.22;0.22;;;10.80;99.90;;;;;;5056566;28;20033;-70
2023/04/17 08:40:03;;;;;;;2.30;1.70;;;10.80;99.90;;;;;;5032788;28;20394;-71
2023/04/17 08:42:30;;;;;;;7.95;5.13;;;11.00;99.90;;;;;;5055912;28;20508;-70
2023/04/17 08:45:00;;;;;;;1.55;0.57;;;10.90;99.90;;;;;;5058110;28;20381;-71
2023/04/17 08:47:26;;;;;;;7.72;3.75;;;11.10;99.90;;;;;;5061357;28;20035;-71
2023/04/17 08:49:51;;;;;;;1.20;1.17;;;11.20;99.90;;;;;;5068363;28;20032;-70
2023/04/17 08:52:17;;;;;;;2.75;1.83;;;11.20;99.90;;;;;;5073327;28;20024;-70
2023/04/17 08:54:43;;;;;;;0.68;0.65;;;11.50;99.90;;;;;;5057886;28;20120;-71
2023/04/17 08:57:08;;;;;;;0.80;0.80;;;11.50;99.90;;;;;;5045923;28;20029;-70
2023/04/17 08:59:34;;;;;;;1.45;1.35;;;11.20;99.90;;;;;;5064645;28;20020;-70
2023/04/17 09:02:05;;;;;;;3.60;2.72;;;11.50;99.90;;;;;;5056720;28;20609;-70
2023/04/17 09:04:43;;;;;;;0.63;0.63;;;11.40;99.90;;;;;;5052434;28;20036;-70
2023/04/17 09:07:10;;;;;;;0.65;0.65;;;11.60;99.90;;;;;;5065498;28;20086;-70
2023/04/17 09:10:09;;;;;;;1.45;1.35;;;11.80;99.90;;;;;;5066015;28;20426;-70
2023/04/17 09:12:40;;;;;;;3.42;2.70;;;12.20;99.90;;;;;;5034600;28;20115;-70
2023/04/17 09:15:15;;;;;;;3.85;3.47;;;12.20;99.90;;;;;;5055418;28;20029;-70
2023/04/17 09:17:41;;;;;;;2.20;1.70;;;12.10;99.90;;;;;;5089964;28;20073;-70
2023/04/17 09:20:10;;;;;;;7.13;2.88;;;12.40;99.90;;;;;;5057812;28;20479;-70
2023/04/17 09:22:39;;;;;;;3.88;0.70;;;12.60;99.90;;;;;;5057214;28;20033;-70
2023/04/17 09:25:22;;;;;;;1.75;1.48;;;12.80;99.90;;;;;;5056643;28;20159;-70
2023/04/17 09:27:47;;;;;;;1.48;1.27;;;12.90;99.90;;;;;;5052785;28;20060;-70
2023/04/17 09:30:13;;;;;;;9.73;5.22;;;12.80;99.90;;;;;;5060819;28;20455;-70
2023/04/17 09:32:39;;;;;;;0.43;0.43;;;12.60;99.90;;;;;;5061725;28;20028;-71
2023/04/17 09:35:05;;;;;;;4.55;3.75;;;12.40;99.90;;;;;;5041410;28;20024;-71
2023/04/17 09:37:51;;;;;;;12.63;2.70;;;12.00;99.90;;;;;;5055465;28;20040;-71
2023/04/17 09:40:21;;;;;;;8.30;4.75;;;11.80;99.90;;;;;;5043067;28;20142;-71
2023/04/17 09:43:02;;;;;;;13.35;4.13;;;11.60;99.90;;;;;;5059797;28;20052;-71
2023/04/17 09:45:40;;;;;;;0.95;0.93;;;11.80;99.90;;;;;;5060286;28;20047;-71
2023/04/17 09:48:09;;;;;;;2.10;1.75;;;11.90;99.90;;;;;;5054892;28;20505;-71
2023/04/17 09:50:35;;;;;;;1.42;1.33;;;12.10;99.90;;;;;;5051546;28;20025;-71
2023/04/17 09:53:03;;;;;;;5.25;2.40;;;12.30;99.90;;;;;;5053536;28;20068;-71
2023/04/17 09:55:33;;;;;;;1.63;1.25;;;12.50;99.90;;;;;;5053584;28;20020;-71
2023/04/17 09:58:06;;;;;;;3.28;2.17;;;12.40;99.90;;;;;;5059810;28;20103;-71
2023/04/17 10:00:31;;;;;;;0.10;0.10;;;12.40;99.90;;;;;;5061436;28;20048;-71
2023/04/17 10:02:58;;;;;;;1.00;0.65;;;12.70;99.90;;;;;;5049972;28;20068;-71
2023/04/17 10:05:27;;;;;;;0.17;0.17;;;13.20;99.90;;;;;;5055844;28;20473;-71
2023/04/17 10:07:54;;;;;;;24.50;1.20;;;13.10;99.90;;;;;;5059907;28;20087;-71
2023/04/17 10:10:25;;;;;;;0.20;0.20;;;13.60;99.90;;;;;;5050415;28;20044;-71
2023/04/17 10:12:54;;;;;;;3.33;1.85;;;13.80;99.90;;;;;;5057677;28;20124;-71
2023/04/17 10:15:22;;;;;;;6.03;1.40;;;14.00;99.90;;;;;;5090279;28;20029;-71
2023/04/17 10:17:49;;;;;;;0.98;0.93;;;13.70;99.90;;;;;;5057983;28;20108;-71
2023/04/17 10:20:21;;;;;;;2.90;2.28;;;13.60;99.90;;;;;;5054710;28;20051;-71
2023/04/17 10:22:55;;;;;;;0.10;0.10;;;13.50;99.90;;;;;;5052819;28;20469;-71
2023/04/17 10:25:25;;;;;;;0.15;0.15;;;13.50;99.90;;;;;;5058634;28;20474;-71
2023/04/17 10:27:52;;;;;;;0.65;0.65;;;13.40;99.90;;;;;;5052511;28;20358;-71
2023/04/17 10:30:21;;;;;;;4.93;3.28;;;13.80;99.90;;;;;;5057109;28;20457;-70
2023/04/17 10:33:18;;;;;;;0.20;0.20;;;13.70;99.90;;;;;;5046890;28;20548;-72
2023/04/17 10:35:44;;;;;;;0.85;0.85;;;13.80;99.90;;;;;;5045279;28;20041;-71
2023/04/17 10:38:10;;;;;;;5.85;3.00;;;13.80;99.90;;;;;;5051765;28;20025;-72
2023/04/17 10:40:37;;;;;;;11.30;3.70;;;14.00;99.90;;;;;;5052319;28;20547;-72
2023/04/17 10:43:12;;;;;;;1.15;1.02;;;14.00;99.90;;;;;;5050205;28;20469;-71
2023/04/17 10:46:00;;;;;;;1.95;1.40;;;13.80;99.90;;;;;;5035011;28;20124;-72
2023/04/17 10:48:37;;;;;;;7.78;5.45;;;13.70;99.90;;;;;;5055387;28;20037;-71
2023/04/17 10:51:27;;;;;;;0.50;0.50;;;13.40;99.90;;;;;;5072388;28;20029;-71
2023/04/17 10:53:57;;;;;;;0.93;0.93;;;13.40;99.90;;;;;;5054557;28;20397;-72
2023/04/17 10:56:24;;;;;;;1.52;1.42;;;13.70;99.90;;;;;;5071349;28;20016;-73
2023/04/17 10:59:05;;;;;;;0.13;0.13;;;13.80;99.90;;;;;;5054701;28;20465;-73
2023/04/17 11:01:38;;;;;;;5.03;1.42;;;13.90;99.90;;;;;;5072430;28;20060;-71
2023/04/17 11:04:05;;;;;;;0.55;0.55;;;14.10;99.90;;;;;;5054431;28;20083;-72
2023/04/17 11:06:32;;;;;;;4.22;2.33;;;14.40;99.90;;;;;;5072012;28;20052;-71
2023/04/17 11:08:59;;;;;;;6.18;1.90;;;14.50;99.90;;;;;;5072283;28;20103;-71
2023/04/17 11:11:25;;;;;;;10.98;2.55;;;14.30;99.90;;;;;;5072420;28;20046;-71
2023/04/17 11:13:51;;;;;;;2.25;1.60;;;14.50;99.90;;;;;;5072151;28;20485;-71
2023/04/17 11:16:19;;;;;;;0.25;0.25;;;14.10;99.90;;;;;;5054397;28;20111;-71
2023/04/17 11:18:46;;;;;;;3.33;2.75;;;14.40;99.90;;;;;;5054579;28;20488;-72
2023/04/17 11:21:15;;;;;;;5.50;2.53;;;14.60;99.90;;;;;;5071995;28;20052;-72
2023/04/17 11:23:51;;;;;;;4.32;3.40;;;14.40;99.90;;;;;;5072592;28;20055;-73
2023/04/17 11:26:18;;;;;;;3.55;2.72;;;14.60;99.90;;;;;;5074259;28;20035;-73
2023/04/17 11:28:44;;;;;;;3.33;2.42;;;14.90;99.90;;;;;;5058450;28;20107;-72
2023/04/17 11:31:13;;;;;;;0.45;0.45;;;14.80;99.90;;;;;;5076276;28;20447;-72
2023/04/17 11:33:40;;;;;;;5.22;3.45;;;15.10;99.90;;;;;;5076289;28;20112;-73
2023/04/17 11:36:06;;;;;;;6.55;3.10;;;15.40;99.90;;;;;;5058050;28;20078;-72
2023/04/17 11:38:33;;;;;;;8.43;3.70;;;14.90;99.90;;;;;;5076011;28;20096;-72
2023/04/17 11:41:00;;;;;;;7.28;4.53;;;14.80;99.90;;;;;;5076018;28;20029;-71
2023/04/17 11:43:28;;;;;;;2.40;2.25;;;14.20;99.90;;;;;;5076142;28;20036;-72
2023/04/17 11:46:00;;;;;;;5.07;2.45;;;14.40;99.90;;;;;;5076140;28;20492;-73
2023/04/17 11:48:27;;;;;;;2.00;1.55;;;14.70;99.90;;;;;;5075956;28;20043;-72
2023/04/17 11:51:03;;;;;;;7.57;3.63;;;15.10;99.90;;;;;;5069895;28;20493;-72
2023/04/17 11:53:31;;;;;;;5.65;2.85;;;15.30;99.90;;;;;;5050730;28;20032;-73
2023/04/17 11:56:14;;;;;;;0.30;0.30;;;15.30;99.90;;;;;;5076075;28;20029;-73
2023/04/17 11:58:49;;;;;;;1.17;0.63;;;15.40;99.90;;;;;;5075701;28;20032;-71
2023/04/17 12:01:16;;;;;;;1.48;1.17;;;15.50;99.90;;;;;;5075830;28;20032;-72
2023/04/17 12:03:43;;;;;;;0.98;0.70;;;15.80;99.90;;;;;;5075469;28;20031;-72
2023/04/17 12:06:10;;;;;;;1.58;1.45;;;15.80;99.90;;;;;;5075766;28;20492;-72
2023/04/17 12:08:49;;;;;;;4.32;1.65;;;15.70;99.90;;;;;;5072824;28;20036;-72
2023/04/17 12:11:35;;;;;;;1.48;1.38;;;16.10;99.90;;;;;;5031939;28;20483;-72
2023/04/17 12:14:02;;;;;;;1.85;1.13;;;16.80;99.90;;;;;;5069509;28;20506;-72
2023/04/17 12:16:28;;;;;;;9.30;2.05;;;17.00;99.90;;;;;;5075598;28;20086;-72
2023/04/17 12:18:55;;;;;;;11.18;2.03;;;17.20;99.90;;;;;;5057360;28;20574;-71
2023/04/17 12:21:22;;;;;;;0.30;0.30;;;17.30;99.90;;;;;;5075540;28;20108;-72
2023/04/17 12:23:49;;;;;;;5.35;1.70;;;17.10;99.90;;;;;;5057615;28;20029;-72
2023/04/17 12:26:15;;;;;;;0.82;0.75;;;17.10;99.80;;;;;;5075353;28;20020;-72
2023/04/17 12:28:40;;;;;;;3.85;1.95;;;17.10;99.70;;;;;;5075372;28;20086;-72
2023/04/17 12:31:06;;;;;;;3.60;2.00;;;17.00;99.90;;;;;;5075017;28;20017;-72
2023/04/17 12:33:32;;;;;;;11.40;5.68;;;16.60;99.90;;;;;;5074873;28;20422;-71
2023/04/17 12:36:03;;;;;;;1.23;1.08;;;16.00;99.90;;;;;;5074943;28;20033;-72
2023/04/17 12:38:29;;;;;;;1.83;1.48;;;16.90;99.90;;;;;;5073656;28;20450;-72
2023/04/17 12:40:55;;;;;;;1.42;1.35;;;17.90;99.90;;;;;;5075044;28;20043;-71
2023/04/17 12:43:21;;;;;;;0.95;0.95;;;18.30;99.50;;;;;;5074666;28;20033;-72
2023/04/17 12:45:46;;;;;;;0.10;0.10;;;18.10;99.00;;;;;;5075108;28;20036;-72
2023/04/17 12:48:13;;;;;;;5.57;4.53;;;17.40;99.90;;;;;;5056472;28;20040;-72
2023/04/17 12:50:41;;;;;;;7.15;2.55;;;17.20;99.40;;;;;;5074864;28;20024;-72